createdAt,value
2022-09-12T00:01:22.713Z,99.90
2022-09-12T00:03:55.381Z,99.90
2022-09-12T00:06:27.348Z,99.90
2022-09-12T00:08:57.329Z,99.90
2022-09-12T00:11:25.956Z,99.90
2022-09-12T00:13:57.474Z,99.90
2022-09-12T00:16:28.674Z,99.90
2022-09-12T00:18:58.149Z,99.90
2022-09-12T00:21:26.704Z,99.90
2022-09-12T00:23:55.768Z,99.90
2022-09-12T00:26:23.980Z,99.90
2022-09-12T00:28:52.586Z,99.90
2022-09-12T00:31:23.965Z,99.90
2022-09-12T00:33:52.896Z,99.90
2022-09-12T00:36:25.547Z,99.90
2022-09-12T00:38:54.839Z,99.90
2022-09-12T00:41:25.645Z,99.90
2022-09-12T00:43:55.460Z,99.90
2022-09-12T00:46:36.922Z,99.90
2022-09-12T00:49:10.437Z,99.90
2022-09-12T00:51:42.502Z,99.90
2022-09-12T00:54:15.590Z,99.90
2022-09-12T00:56:46.386Z,99.90
2022-09-12T00:59:18.524Z,99.90
2022-09-12T01:01:51.379Z,99.90
2022-09-12T01:04:23.398Z,99.90
2022-09-12T01:06:53.951Z,99.90
2022-09-12T01:09:25.390Z,99.90
2022-09-12T01:11:59.583Z,99.90
2022-09-12T01:14:33.298Z,99.90
2022-09-12T01:17:01.597Z,99.90
2022-09-12T01:19:58.132Z,99.90
2022-09-12T01:22:57.178Z,99.90
2022-09-12T01:25:33.836Z,99.90
2022-09-12T01:28:29.196Z,99.90
2022-09-12T01:31:04.342Z,99.90
2022-09-12T01:33:57.510Z,99.90
2022-09-12T01:36:39.141Z,99.90
2022-09-12T01:39:17.761Z,99.90
2022-09-12T01:41:55.068Z,99.90
2022-09-12T01:44:33.172Z,99.90
2022-09-12T01:47:08.473Z,99.90
2022-09-12T01:49:43.804Z,99.90
2022-09-12T01:52:19.426Z,99.90
2022-09-12T01:54:52.533Z,99.90
2022-09-12T01:57:26.193Z,99.90
2022-09-12T02:00:00.280Z,99.90
2022-09-12T02:02:35.301Z,99.90
2022-09-12T02:05:09.834Z,99.90
2022-09-12T02:07:42.015Z,99.90
2022-09-12T02:10:16.277Z,99.90
2022-09-12T02:12:54.529Z,99.90
2022-09-12T02:15:28.799Z,99.90
2022-09-12T02:18:02.542Z,99.90
2022-09-12T02:20:47.866Z,99.90
2022-09-12T02:23:22.948Z,99.90
2022-09-12T02:25:56.274Z,99.90
2022-09-12T02:28:30.377Z,99.90
2022-09-12T02:31:14.773Z,99.90
2022-09-12T02:33:50.742Z,99.90
2022-09-12T02:36:34.419Z,99.90
2022-09-12T02:39:02.559Z,99.90
2022-09-12T02:41:30.537Z,99.90
2022-09-12T02:43:58.765Z,99.90
2022-09-12T02:46:32.764Z,99.90
2022-09-12T02:49:02.103Z,99.90
2022-09-12T02:51:30.281Z,99.90
2022-09-12T02:53:58.734Z,99.90
2022-09-12T02:56:31.064Z,99.90
2022-09-12T02:59:04.237Z,99.90
2022-09-12T03:02:16.659Z,99.90
2022-09-12T03:05:21.614Z,99.90
2022-09-12T03:08:20.992Z,99.90
2022-09-12T03:11:19.911Z,99.90
2022-09-12T03:13:59.986Z,99.90
2022-09-12T03:16:35.390Z,99.90
2022-09-12T03:19:13.078Z,99.90
2022-09-12T03:21:55.876Z,99.90
2022-09-12T03:24:31.993Z,99.90
2022-09-12T03:27:08.888Z,99.90
2022-09-12T03:29:39.379Z,99.90
2022-09-12T03:32:07.779Z,99.90
2022-09-12T03:34:36.186Z,99.90
2022-09-12T03:37:05.991Z,99.90
2022-09-12T03:39:34.248Z,99.90
2022-09-12T03:42:02.263Z,99.90
2022-09-12T03:44:30.326Z,99.90
2022-09-12T03:46:58.284Z,99.90
2022-09-12T03:49:26.309Z,99.90
2022-09-12T03:51:54.274Z,99.90
2022-09-12T03:54:23.766Z,99.90
2022-09-12T03:56:51.724Z,99.90
2022-09-12T03:59:19.675Z,99.90
2022-09-12T04:01:47.633Z,99.90
2022-09-12T04:04:15.614Z,99.90
2022-09-12T04:06:44.073Z,99.90
2022-09-12T04:09:12.048Z,99.90
2022-09-12T04:11:42.963Z,99.90
2022-09-12T04:14:10.922Z,99.90
2022-09-12T04:16:38.917Z,99.90
2022-09-12T04:19:06.901Z,99.90
2022-09-12T04:21:34.925Z,99.90
2022-09-12T04:24:03.440Z,99.90
2022-09-12T04:26:31.810Z,99.90
2022-09-12T04:29:01.066Z,99.90
2022-09-12T04:31:29.046Z,99.90
2022-09-12T04:33:58.727Z,99.90
2022-09-12T04:36:28.324Z,99.90
2022-09-12T04:38:56.877Z,99.90
2022-09-12T04:41:27.759Z,99.90
2022-09-12T04:44:01.565Z,99.90
2022-09-12T04:46:30.898Z,99.90
2022-09-12T04:48:59.049Z,99.90
2022-09-12T04:51:30.916Z,99.90
2022-09-12T04:54:01.012Z,99.90
2022-09-12T04:56:30.590Z,99.90
2022-09-12T04:59:01.681Z,99.90
2022-09-12T05:01:31.147Z,99.90
2022-09-12T05:04:00.780Z,99.90
2022-09-12T05:06:31.664Z,99.90
2022-09-12T05:09:01.786Z,99.90
2022-09-12T05:11:59.697Z,99.90
2022-09-12T05:14:21.874Z,99.90
2022-09-12T05:16:50.729Z,99.90
2022-09-12T05:19:22.092Z,99.90
2022-09-12T05:21:50.302Z,99.90
2022-09-12T05:24:18.393Z,99.90
2022-09-12T05:26:46.335Z,99.90
2022-09-12T05:29:14.422Z,99.90
2022-09-12T05:31:43.764Z,99.90
2022-09-12T05:34:12.627Z,99.90
2022-09-12T05:36:40.824Z,99.90
2022-09-12T05:39:08.780Z,99.90
2022-09-12T05:41:37.053Z,99.90
2022-09-12T05:44:07.481Z,99.90
2022-09-12T05:46:39.501Z,99.90
2022-09-12T05:49:11.572Z,99.90
2022-09-12T05:51:42.459Z,99.90
2022-09-12T05:54:13.672Z,99.90
2022-09-12T05:56:44.110Z,99.90
2022-09-12T05:59:14.830Z,99.90
2022-09-12T06:01:46.438Z,99.90
2022-09-12T06:04:21.391Z,99.90
2022-09-12T06:06:49.354Z,99.90
2022-09-12T06:09:18.571Z,99.90
2022-09-12T06:11:47.827Z,99.90
2022-09-12T06:14:17.800Z,99.90
2022-09-12T06:16:47.052Z,99.90
2022-09-12T06:19:19.876Z,99.90
2022-09-12T06:21:49.435Z,99.90
2022-09-12T06:24:17.587Z,99.90
2022-09-12T06:26:45.737Z,99.90
2022-09-12T06:29:14.243Z,99.90
2022-09-12T06:31:44.163Z,99.90
2022-09-12T06:34:14.936Z,99.90
2022-09-12T06:36:46.307Z,99.90
2022-09-12T06:39:16.734Z,99.90
2022-09-12T06:41:45.145Z,99.90
2022-09-12T06:44:16.516Z,99.90
2022-09-12T06:46:45.195Z,99.90
2022-09-12T06:49:14.123Z,99.90
2022-09-12T06:51:43.655Z,99.90
2022-09-12T06:54:15.254Z,99.90
2022-09-12T06:56:43.447Z,99.90
2022-09-12T06:59:11.602Z,99.90
2022-09-12T07:01:40.113Z,99.90
2022-09-12T07:04:08.422Z,99.90
2022-09-12T07:06:39.724Z,99.90
2022-09-12T07:09:13.780Z,99.90
2022-09-12T07:11:43.420Z,99.90
2022-09-12T07:14:14.188Z,99.90
2022-09-12T07:16:42.595Z,99.90
2022-09-12T07:19:12.039Z,99.90
2022-09-12T07:21:41.021Z,99.90
2022-09-12T07:24:11.427Z,99.90
2022-09-12T07:26:41.999Z,99.90
2022-09-12T07:32:05.549Z,99.90
2022-09-12T07:34:33.801Z,99.90
2022-09-12T07:37:01.759Z,99.90
2022-09-12T07:39:31.143Z,99.90
2022-09-12T07:42:00.337Z,99.90
2022-09-12T07:44:29.358Z,99.90
2022-09-12T07:46:57.301Z,99.90
2022-09-12T07:49:25.401Z,99.90
2022-09-12T07:51:53.848Z,99.90
2022-09-12T07:54:22.053Z,99.90
2022-09-12T07:56:51.647Z,99.70
2022-09-12T07:59:41.392Z,99.60
2022-09-12T08:02:16.811Z,98.50
2022-09-12T08:04:46.301Z,98.00
2022-09-12T08:07:14.303Z,98.10
2022-09-12T08:09:42.287Z,98.20
2022-09-12T08:12:11.703Z,98.80
2022-09-12T08:14:39.676Z,98.30
2022-09-12T08:17:07.646Z,98.10
2022-09-12T08:19:35.707Z,99.00
2022-09-12T08:22:04.344Z,99.20
2022-09-12T08:24:33.530Z,97.60
2022-09-12T08:27:01.529Z,98.00
2022-09-12T08:29:30.832Z,97.50
2022-09-12T08:31:58.944Z,95.40
2022-09-12T08:34:27.059Z,93.80
2022-09-12T08:36:55.177Z,93.50
2022-09-12T08:39:24.543Z,92.60
2022-09-12T08:42:02.585Z,91.40
2022-09-12T08:44:56.297Z,92.70
2022-09-12T08:47:29.884Z,91.50
2022-09-12T08:50:19.287Z,92.60
2022-09-12T08:52:58.963Z,91.20
2022-09-12T08:55:35.330Z,90.80
2022-09-12T08:58:13.895Z,91.90
2022-09-12T09:00:51.700Z,91.90
2022-09-12T09:03:51.995Z,90.60
2022-09-12T09:06:40.787Z,91.00
2022-09-12T09:09:15.935Z,92.60
2022-09-12T09:12:01.129Z,92.30
2022-09-12T09:15:01.807Z,92.40
2022-09-12T09:17:38.605Z,91.20
2022-09-12T09:20:17.347Z,92.20
2022-09-12T09:22:50.764Z,85.40
2022-09-12T09:25:23.266Z,87.00
2022-09-12T09:27:59.712Z,90.20
2022-09-12T09:30:28.553Z,87.40
2022-09-12T09:33:01.761Z,89.60
2022-09-12T09:35:40.263Z,88.00
2022-09-12T09:38:24.571Z,88.60
2022-09-12T09:41:12.397Z,85.30
2022-09-12T09:43:41.155Z,90.90
2022-09-12T09:46:09.418Z,85.40
2022-09-12T09:48:42.231Z,86.70
2022-09-12T09:51:11.714Z,86.80
2022-09-12T09:53:46.111Z,87.30
2022-09-12T09:56:29.956Z,86.70
2022-09-12T09:58:58.134Z,90.50
2022-09-12T10:01:27.423Z,89.50
2022-09-12T10:03:57.678Z,86.10
2022-09-12T10:06:34.194Z,86.50
2022-09-12T10:09:18.737Z,87.70
2022-09-12T10:11:47.712Z,88.60
2022-09-12T10:14:37.663Z,90.90
2022-09-12T10:17:33.895Z,88.20
2022-09-12T10:20:21.127Z,85.30
2022-09-12T10:22:50.643Z,84.00
2022-09-12T10:25:21.387Z,83.70
2022-09-12T10:27:55.590Z,80.60
2022-09-12T10:30:25.850Z,83.40
2022-09-12T10:32:54.136Z,81.40
2022-09-12T10:35:26.671Z,79.00
2022-09-12T10:37:58.440Z,80.10
2022-09-12T10:40:28.877Z,80.00
2022-09-12T10:42:59.393Z,79.30
2022-09-12T10:45:32.626Z,74.70
2022-09-12T10:48:07.475Z,75.40
2022-09-12T10:50:42.376Z,72.30
2022-09-12T10:53:21.292Z,73.90
2022-09-12T10:56:04.025Z,74.00
2022-09-12T10:58:55.127Z,71.80
2022-09-12T11:01:40.303Z,72.60
2022-09-12T11:04:27.130Z,71.80
2022-09-12T11:07:23.652Z,73.30
2022-09-12T11:09:59.987Z,72.70
2022-09-12T11:12:37.553Z,72.50
2022-09-12T11:15:36.324Z,71.40
2022-09-12T11:18:15.986Z,73.20
2022-09-12T11:21:10.917Z,75.40
2022-09-12T11:24:09.425Z,77.00
2022-09-12T11:27:00.720Z,74.50
2022-09-12T11:29:49.351Z,75.90
2022-09-12T11:32:59.968Z,77.20
2022-09-12T11:35:31.348Z,78.10
2022-09-12T11:38:35.628Z,76.70
2022-09-12T11:41:08.116Z,79.90
2022-09-12T11:43:42.599Z,79.30
2022-09-12T11:46:21.645Z,79.10
2022-09-12T11:48:56.676Z,79.80
2022-09-12T11:51:30.319Z,81.70
2022-09-12T11:54:07.947Z,81.30
2022-09-12T11:56:47.420Z,83.40
2022-09-12T11:59:30.095Z,82.50
2022-09-12T12:02:02.159Z,86.00
2022-09-12T12:04:39.135Z,87.00
2022-09-12T12:07:10.684Z,87.80
2022-09-12T12:09:49.174Z,86.20
2022-09-12T12:12:24.184Z,89.80
2022-09-12T12:14:55.397Z,87.80
2022-09-12T12:17:25.695Z,89.30
2022-09-12T12:20:07.638Z,88.30
2022-09-12T12:22:37.129Z,87.70
2022-09-12T12:25:39.963Z,84.90
2022-09-12T12:28:09.582Z,85.10
2022-09-12T12:31:03.134Z,85.60
2022-09-12T12:33:56.510Z,86.50
2022-09-12T12:36:35.067Z,86.30
2022-09-12T12:40:02.781Z,86.70
2022-09-12T12:43:07.605Z,86.20
2022-09-12T12:46:14.406Z,85.80
2022-09-12T12:49:10.739Z,86.10
2022-09-12T12:52:05.820Z,88.10
2022-09-12T12:54:57.424Z,88.20
2022-09-12T12:57:49.885Z,88.00
2022-09-12T13:00:32.356Z,88.00
2022-09-12T13:03:11.002Z,87.00
2022-09-12T13:05:46.307Z,86.40
2022-09-12T13:08:31.341Z,86.60
2022-09-12T13:11:02.964Z,85.10
2022-09-12T13:13:38.305Z,86.10
2022-09-12T13:16:07.655Z,86.30
2022-09-12T13:18:45.075Z,85.30
2022-09-12T13:21:16.279Z,86.60
2022-09-12T13:23:45.091Z,89.00
2022-09-12T13:26:15.440Z,86.60
2022-09-12T13:28:43.443Z,87.10
2022-09-12T13:31:22.372Z,87.60
2022-09-12T13:33:54.736Z,86.70
2022-09-12T13:36:43.500Z,86.90
2022-09-12T13:39:20.459Z,86.60
2022-09-12T13:42:34.045Z,86.20
2022-09-12T13:45:06.905Z,87.00
2022-09-12T13:47:38.524Z,84.70
2022-09-12T13:50:16.302Z,86.10
2022-09-12T13:52:50.894Z,87.90
2022-09-12T13:55:31.267Z,85.50
2022-09-12T13:58:02.136Z,86.00
2022-09-12T14:00:32.242Z,84.40
2022-09-12T14:03:18.495Z,84.60
2022-09-12T14:05:56.771Z,84.90
2022-09-12T14:08:25.878Z,85.90
2022-09-12T14:10:54.711Z,84.40
2022-09-12T14:13:26.425Z,83.50
2022-09-12T14:15:57.070Z,82.90
2022-09-12T14:18:27.755Z,83.20
2022-09-12T14:21:00.980Z,81.90
2022-09-12T14:23:32.957Z,82.40
2022-09-12T14:26:05.635Z,83.00
2022-09-12T14:28:35.172Z,83.90
2022-09-12T14:31:06.470Z,84.50
2022-09-12T14:33:48.404Z,83.10
2022-09-12T14:36:25.689Z,82.10
2022-09-12T14:38:59.175Z,83.80
2022-09-12T14:41:32.398Z,84.80
2022-09-12T14:44:04.978Z,84.90
2022-09-12T14:46:36.769Z,82.00
2022-09-12T14:49:11.819Z,82.50
2022-09-12T14:51:54.154Z,82.30
2022-09-12T14:54:39.308Z,83.20
2022-09-12T14:57:35.279Z,83.00
2022-09-12T15:00:24.163Z,82.90
2022-09-12T15:02:54.125Z,82.40
2022-09-12T15:05:28.760Z,82.00
2022-09-12T15:08:01.101Z,83.70
2022-09-12T15:10:32.261Z,82.70
2022-09-12T15:13:26.841Z,84.10
2022-09-12T15:15:57.048Z,83.10
2022-09-12T15:18:27.276Z,83.50
2022-09-12T15:20:58.574Z,82.30
2022-09-12T15:23:38.149Z,84.10
2022-09-12T15:26:07.511Z,81.40
2022-09-12T15:28:35.812Z,84.00
2022-09-12T15:31:11.438Z,85.00
2022-09-12T15:33:39.531Z,83.50
2022-09-12T15:36:17.195Z,83.80
2022-09-12T15:38:47.599Z,82.60
2022-09-12T15:41:19.017Z,86.10
2022-09-12T15:43:48.014Z,88.20
2022-09-12T15:46:19.314Z,84.50
2022-09-12T15:48:47.559Z,86.10
2022-09-12T15:51:18.355Z,87.50
2022-09-12T15:53:49.170Z,90.90
2022-09-12T15:56:18.982Z,91.80
2022-09-12T15:58:58.138Z,91.70
2022-09-12T16:01:28.180Z,91.40
2022-09-12T16:03:57.669Z,91.40
2022-09-12T16:06:26.005Z,92.00
2022-09-12T16:08:55.348Z,93.30
2022-09-12T16:11:25.934Z,92.90
2022-09-12T16:13:56.672Z,94.00
2022-09-12T16:16:24.846Z,94.60
2022-09-12T16:18:53.181Z,95.20
2022-09-12T16:21:21.270Z,95.60
2022-09-12T16:23:49.739Z,96.60
2022-09-12T16:26:19.316Z,96.90
2022-09-12T16:28:47.608Z,97.60
2022-09-12T16:31:16.060Z,98.30
2022-09-12T16:33:44.061Z,98.90
2022-09-12T16:36:14.819Z,99.30
2022-09-12T16:38:43.836Z,99.50
2022-09-12T16:41:13.799Z,99.90
2022-09-12T16:43:43.982Z,99.90
2022-09-12T16:46:15.079Z,99.90
2022-09-12T16:48:49.372Z,99.90
2022-09-12T16:51:21.305Z,99.90
2022-09-12T16:53:50.284Z,99.90
2022-09-12T16:56:19.054Z,99.90
2022-09-12T16:58:49.086Z,99.90
2022-09-12T17:01:20.196Z,99.90
2022-09-12T17:03:49.023Z,99.90
2022-09-12T17:06:18.895Z,99.90
2022-09-12T17:08:49.640Z,99.90
2022-09-12T17:11:21.059Z,99.90
2022-09-12T17:14:07.650Z,99.90
2022-09-12T17:16:38.418Z,99.90
2022-09-12T17:19:08.016Z,99.90
2022-09-12T17:21:36.510Z,99.90
2022-09-12T17:24:05.148Z,99.90
2022-09-12T17:26:33.816Z,99.90
2022-09-12T17:29:03.632Z,99.90
2022-09-12T17:31:32.426Z,99.90
2022-09-12T17:34:02.431Z,99.90
2022-09-12T17:36:32.146Z,99.90
2022-09-12T17:39:00.501Z,99.90
2022-09-12T17:41:31.742Z,99.90
2022-09-12T17:44:03.452Z,99.90
2022-09-12T17:46:35.435Z,99.90
2022-09-12T17:49:05.942Z,99.90
2022-09-12T17:51:34.024Z,99.90
2022-09-12T17:54:05.449Z,99.90
2022-09-12T17:56:37.135Z,99.90
2022-09-12T17:59:11.459Z,99.90
2022-09-12T18:01:56.897Z,99.90
2022-09-12T18:04:25.153Z,99.90
2022-09-12T18:06:53.133Z,99.90
2022-09-12T18:09:24.961Z,99.90
2022-09-12T18:11:53.804Z,99.90
2022-09-12T18:14:24.023Z,99.90
2022-09-12T18:16:52.416Z,99.90
2022-09-12T18:19:20.824Z,99.90
2022-09-12T18:21:48.829Z,99.90
2022-09-12T18:24:17.103Z,99.90
2022-09-12T18:26:45.086Z,99.90
2022-09-12T18:29:16.697Z,99.90
2022-09-12T18:31:47.617Z,99.90
2022-09-12T18:34:16.468Z,99.90
2022-09-12T18:36:47.216Z,99.90
2022-09-12T18:39:15.604Z,99.90
2022-09-12T18:41:43.913Z,99.90
2022-09-12T18:44:13.231Z,99.90
2022-09-12T18:46:41.735Z,99.90
2022-09-12T18:49:11.469Z,99.90
2022-09-12T18:51:41.711Z,99.90
2022-09-12T18:54:14.558Z,99.90
2022-09-12T18:56:43.914Z,99.90
2022-09-12T18:59:14.233Z,99.90
2022-09-12T19:01:43.336Z,99.90
2022-09-12T19:04:14.902Z,99.90
2022-09-12T19:06:46.023Z,99.90
2022-09-12T19:09:20.806Z,99.90
2022-09-12T19:11:52.572Z,99.90
2022-09-12T19:14:24.820Z,99.90
2022-09-12T19:16:53.758Z,99.90
2022-09-12T19:19:23.425Z,99.90
2022-09-12T19:21:51.485Z,99.90
2022-09-12T19:24:21.663Z,99.90
2022-09-12T19:26:50.708Z,99.90
2022-09-12T19:29:18.936Z,99.90
2022-09-12T19:31:47.323Z,99.90
2022-09-12T19:34:16.025Z,99.90
2022-09-12T19:36:47.074Z,99.90
2022-09-12T19:39:16.797Z,99.90
2022-09-12T19:41:45.503Z,99.90
2022-09-12T19:44:13.672Z,99.90
2022-09-12T19:46:41.933Z,99.90
2022-09-12T19:49:12.609Z,99.90
2022-09-12T19:51:41.117Z,99.90
2022-09-12T19:54:11.326Z,99.90
2022-09-12T19:56:39.321Z,99.90
2022-09-12T19:59:07.314Z,99.90
2022-09-12T20:01:37.007Z,99.90
2022-09-12T20:04:06.509Z,99.90
2022-09-12T20:06:34.744Z,99.90
2022-09-12T20:09:02.898Z,99.90
2022-09-12T20:11:32.301Z,99.90
2022-09-12T20:14:00.432Z,99.90
2022-09-12T20:16:29.924Z,99.90
2022-09-12T20:19:00.948Z,99.90
2022-09-12T20:21:32.808Z,99.90
2022-09-12T20:24:02.952Z,99.90
2022-09-12T20:26:32.612Z,99.90
2022-09-12T20:29:01.245Z,99.90
2022-09-12T20:31:30.093Z,99.90
2022-09-12T20:33:58.261Z,99.90
2022-09-12T20:36:26.946Z,99.90
2022-09-12T20:38:57.739Z,99.90
2022-09-12T20:41:28.123Z,99.90
2022-09-12T20:43:58.341Z,99.90
2022-09-12T20:46:27.994Z,99.90
2022-09-12T20:48:56.595Z,99.90
2022-09-12T20:51:26.724Z,99.90
2022-09-12T20:53:56.869Z,99.90
2022-09-12T20:56:26.968Z,99.90
2022-09-12T20:58:57.384Z,99.90
2022-09-12T21:01:27.663Z,99.90
2022-09-12T21:03:55.735Z,99.90
2022-09-12T21:06:24.492Z,99.90
2022-09-12T21:08:53.746Z,99.90
2022-09-12T21:11:22.972Z,99.90
2022-09-12T21:13:53.953Z,99.90
2022-09-12T21:16:26.828Z,99.90
2022-09-12T21:18:57.652Z,99.90
2022-09-12T21:21:26.684Z,99.90
2022-09-12T21:23:58.802Z,99.90
2022-09-12T21:26:27.206Z,99.90
2022-09-12T21:28:55.282Z,99.90
2022-09-12T21:31:25.296Z,99.90
2022-09-12T21:33:53.525Z,99.90
2022-09-12T21:36:21.850Z,99.90
2022-09-12T21:38:49.963Z,99.90
2022-09-12T21:41:18.559Z,99.90
2022-09-12T21:43:47.779Z,99.90
2022-09-12T21:46:15.896Z,99.90
2022-09-12T21:48:45.275Z,99.90
2022-09-12T21:51:15.786Z,99.90
2022-09-12T21:53:44.318Z,99.90
2022-09-12T21:56:12.280Z,99.90
2022-09-12T21:58:40.578Z,99.90
2022-09-12T22:01:12.994Z,99.90
2022-09-12T22:03:44.673Z,99.90
2022-09-12T22:06:16.392Z,99.90
2022-09-12T22:08:45.698Z,99.90
2022-09-12T22:11:13.725Z,99.90
2022-09-12T22:13:43.869Z,99.90
2022-09-12T22:16:12.608Z,99.90
2022-09-12T22:18:40.790Z,99.90
2022-09-12T22:21:12.268Z,99.90
2022-09-12T22:23:59.277Z,99.90
2022-09-12T22:26:28.392Z,99.90
2022-09-12T22:28:56.609Z,99.90
2022-09-12T22:31:24.669Z,99.90
2022-09-12T22:33:52.701Z,99.90
2022-09-12T22:36:20.650Z,99.90
2022-09-12T22:38:50.934Z,99.90
2022-09-12T22:41:18.887Z,99.90
2022-09-12T22:43:46.826Z,99.90
2022-09-12T22:46:14.996Z,99.90
2022-09-12T22:48:43.583Z,99.90
2022-09-12T22:51:12.418Z,99.90
2022-09-12T22:53:40.471Z,99.90
2022-09-12T22:56:10.489Z,99.90
2022-09-12T22:58:38.810Z,99.90
2022-09-12T23:01:07.338Z,99.90
2022-09-12T23:03:36.347Z,99.90
2022-09-12T23:06:05.486Z,99.90
2022-09-12T23:08:36.100Z,99.90
2022-09-12T23:11:05.476Z,99.90
2022-09-12T23:13:34.821Z,99.90
2022-09-12T23:16:05.751Z,99.90
2022-09-12T23:18:35.992Z,99.90
2022-09-12T23:21:07.446Z,99.90
2022-09-12T23:23:36.555Z,99.90
2022-09-12T23:26:07.584Z,99.90
2022-09-12T23:28:37.226Z,99.90
2022-09-12T23:31:05.510Z,99.90
2022-09-12T23:33:35.007Z,99.90
2022-09-12T23:36:06.069Z,99.90
2022-09-12T23:38:36.913Z,99.90
2022-09-12T23:41:05.657Z,99.90
2022-09-12T23:43:34.293Z,99.90
2022-09-12T23:46:04.503Z,99.90
2022-09-12T23:48:33.730Z,99.90
2022-09-12T23:51:02.114Z,99.90
2022-09-12T23:53:30.993Z,99.90
2022-09-12T23:56:00.032Z,99.90
2022-09-12T23:58:27.992Z,99.90
